sensor_id;sensor_type;location;lat;lon;timestamp;temperature;humidity
12959;DHT22;6544;51.666;6.634;2023-06-04T00:00:42;14.80;99.90
12959;DHT22;6544;51.666;6.634;2023-06-04T00:03:09;14.90;99.90
12959;DHT22;6544;51.666;6.634;2023-06-04T00:05:35;14.90;99.90
12959;DHT22;6544;51.666;6.634;2023-06-04T00:08:04;14.70;99.90
12959;DHT22;6544;51.666;6.634;2023-06-04T00:10:33;14.60;1.00
12959;DHT22;6544;51.666;6.634;2023-06-04T00:13:00;14.50;1.00
12959;DHT22;6544;51.666;6.634;2023-06-04T00:15:27;14.60;1.00
12959;DHT22;6544;51.666;6.634;2023-06-04T00:17:54;14.60;1.00
12959;DHT22;6544;51.666;6.634;2023-06-04T00:20:22;14.60;1.00
12959;DHT22;6544;51.666;6.634;2023-06-04T15:50:26;23.80;99.90
12959;DHT22;6544;51.666;6.634;2023-06-04T15:52:53;23.80;99.90
12959;DHT22;6544;51.666;6.634;2023-06-04T15:55:20;23.80;99.90
12959;DHT22;6544;51.666;6.634;2023-06-04T15:57:47;24.00;99.90
12959;DHT22;6544;51.666;6.634;2023-06-04T16:00:17;24.00;99.90
12959;DHT22;6544;51.666;6.634;2023-06-04T16:02:44;23.80;99.90
12959;DHT22;6544;51.666;6.634;2023-06-04T16:05:11;23.70;99.90
12959;DHT22;6544;51.666;6.634;2023-06-04T16:07:39;23.70;99.90
12959;DHT22;6544;51.666;6.634;2023-06-04T16:10:07;23.70;99.90
12959;DHT22;6544;51.666;6.634;2023-06-04T16:12:34;23.70;99.90
12959;DHT22;6544;51.666;6.634;2023-06-04T16:15:01;23.90;99.90
12959;DHT22;6544;51.666;6.634;2023-06-04T16:17:28;23.80;99.90
12959;DHT22;6544;51.666;6.634;2023-06-04T16:19:55;23.80;99.90
12959;DHT22;6544;51.666;6.634;2023-06-04T16:22:21;23.80;99.90
12959;DHT22;6544;51.666;6.634;2023-06-04T16:24:50;23.70;99.90
12959;DHT22;6544;51.666;6.634;2023-06-04T16:27:17;23.70;99.90
12959;DHT22;6544;51.666;6.634;2023-06-04T16:29:44;23.80;99.90
12959;DHT22;6544;51.666;6.634;2023-06-04T16:32:11;23.60;99.90
12959;DHT22;6544;51.666;6.634;2023-06-04T16:34:37;23.70;99.90
12959;DHT22;6544;51.666;6.634;2023-06-04T16:37:04;23.70;99.90
12959;DHT22;6544;51.666;6.634;2023-06-04T16:39:31;23.70;99.90
12959;DHT22;6544;51.666;6.634;2023-06-04T16:42:00;23.50;99.90
12959;DHT22;6544;51.666;6.634;2023-06-04T16:44:28;23.60;99.90
12959;DHT22;6544;51.666;6.634;2023-06-04T16:46:55;23.70;99.90
12959;DHT22;6544;51.666;6.634;2023-06-04T16:49:22;23.60;99.90
12959;DHT22;6544;51.666;6.634;2023-06-04T16:51:49;23.50;99.90
12959;DHT22;6544;51.666;6.634;2023-06-04T16:54:16;23.50;99.90
12959;DHT22;6544;51.666;6.634;2023-06-04T16:56:43;23.40;99.90
12959;DHT22;6544;51.666;6.634;2023-06-04T16:59:12;23.40;99.90
12959;DHT22;6544;51.666;6.634;2023-06-04T17:01:38;23.30;99.90
12959;DHT22;6544;51.666;6.634;2023-06-04T17:04:05;23.40;99.90
12959;DHT22;6544;51.666;6.634;2023-06-04T17:06:32;23.50;99.90
12959;DHT22;6544;51.666;6.634;2023-06-04T17:09:01;23.50;99.90
12959;DHT22;6544;51.666;6.634;2023-06-04T17:11:28;23.50;99.90
12959;DHT22;6544;51.666;6.634;2023-06-04T17:13:57;23.40;99.90
12959;DHT22;6544;51.666;6.634;2023-06-04T17:16:25;23.30;99.90
12959;DHT22;6544;51.666;6.634;2023-06-04T17:18:52;23.40;99.90
12959;DHT22;6544;51.666;6.634;2023-06-04T17:21:19;23.50;99.90
12959;DHT22;6544;51.666;6.634;2023-06-04T17:23:46;23.40;99.90
12959;DHT22;6544;51.666;6.634;2023-06-04T17:26:13;23.30;99.90
12959;DHT22;6544;51.666;6.634;2023-06-04T17:28:41;23.30;99.90
12959;DHT22;6544;51.666;6.634;2023-06-04T17:31:07;23.40;99.90
12959;DHT22;6544;51.666;6.634;2023-06-04T17:33:39;23.40;99.90
12959;DHT22;6544;51.666;6.634;2023-06-04T17:36:06;23.30;99.90
12959;DHT22;6544;51.666;6.634;2023-06-04T17:38:33;23.20;99.90
12959;DHT22;6544;51.666;6.634;2023-06-04T17:41:00;23.20;99.90
12959;DHT22;6544;51.666;6.634;2023-06-04T17:43:28;23.30;99.90
12959;DHT22;6544;51.666;6.634;2023-06-04T17:45:56;23.30;99.90
12959;DHT22;6544;51.666;6.634;2023-06-04T17:48:23;23.30;99.90
12959;DHT22;6544;51.666;6.634;2023-06-04T17:50:52;23.30;99.90
12959;DHT22;6544;51.666;6.634;2023-06-04T17:53:18;23.30;99.90
12959;DHT22;6544;51.666;6.634;2023-06-04T17:55:45;23.20;99.90
12959;DHT22;6544;51.666;6.634;2023-06-04T17:58:12;23.30;99.90
12959;DHT22;6544;51.666;6.634;2023-06-04T18:00:39;23.30;99.90
12959;DHT22;6544;51.666;6.634;2023-06-04T18:03:06;23.40;99.90
12959;DHT22;6544;51.666;6.634;2023-06-04T18:05:34;23.10;99.90
12959;DHT22;6544;51.666;6.634;2023-06-04T18:08:02;23.20;99.90
12959;DHT22;6544;51.666;6.634;2023-06-04T18:10:29;23.10;99.90
12959;DHT22;6544;51.666;6.634;2023-06-04T18:12:56;23.20;99.90
12959;DHT22;6544;51.666;6.634;2023-06-04T18:15:23;23.10;99.90
12959;DHT22;6544;51.666;6.634;2023-06-04T18:17:50;23.10;99.90
12959;DHT22;6544;51.666;6.634;2023-06-04T18:20:17;23.10;99.90
12959;DHT22;6544;51.666;6.634;2023-06-04T18:22:44;23.00;99.90
12959;DHT22;6544;51.666;6.634;2023-06-04T18:25:12;23.10;99.90
12959;DHT22;6544;51.666;6.634;2023-06-04T18:27:39;23.20;99.90
12959;DHT22;6544;51.666;6.634;2023-06-04T18:30:07;23.10;99.90
12959;DHT22;6544;51.666;6.634;2023-06-04T18:32:35;23.10;99.90
12959;DHT22;6544;51.666;6.634;2023-06-04T18:35:02;23.10;99.90
12959;DHT22;6544;51.666;6.634;2023-06-04T18:37:29;23.10;99.90
12959;DHT22;6544;51.666;6.634;2023-06-04T18:39:56;23.10;99.90
12959;DHT22;6544;51.666;6.634;2023-06-04T18:42:24;23.10;99.90
12959;DHT22;6544;51.666;6.634;2023-06-04T18:44:51;23.10;99.90
12959;DHT22;6544;51.666;6.634;2023-06-04T18:47:18;23.00;99.90
12959;DHT22;6544;51.666;6.634;2023-06-04T18:49:45;22.90;99.90
12959;DHT22;6544;51.666;6.634;2023-06-04T18:52:12;22.90;99.90
12959;DHT22;6544;51.666;6.634;2023-06-04T18:54:38;22.90;99.90
12959;DHT22;6544;51.666;6.634;2023-06-04T18:57:07;22.90;99.90
12959;DHT22;6544;51.666;6.634;2023-06-04T18:59:39;22.80;99.90
12959;DHT22;6544;51.666;6.634;2023-06-04T19:02:06;22.70;99.90
12959;DHT22;6544;51.666;6.634;2023-06-04T19:04:35;22.70;99.90
12959;DHT22;6544;51.666;6.634;2023-06-04T19:07:02;22.80;99.90
12959;DHT22;6544;51.666;6.634;2023-06-04T19:09:32;22.80;99.90
12959;DHT22;6544;51.666;6.634;2023-06-04T19:11:59;22.80;99.90
12959;DHT22;6544;51.666;6.634;2023-06-04T19:14:31;22.70;99.90
12959;DHT22;6544;51.666;6.634;2023-06-04T19:17:01;22.70;99.90
12959;DHT22;6544;51.666;6.634;2023-06-04T19:19:28;22.40;99.90
12959;DHT22;6544;51.666;6.634;2023-06-04T19:21:55;22.40;99.90
12959;DHT22;6544;51.666;6.634;2023-06-04T19:24:23;22.40;99.90
12959;DHT22;6544;51.666;6.634;2023-06-04T19:26:50;22.30;99.90
12959;DHT22;6544;51.666;6.634;2023-06-04T19:29:17;22.30;99.90
12959;DHT22;6544;51.666;6.634;2023-06-04T19:31:45;22.20;99.90
12959;DHT22;6544;51.666;6.634;2023-06-04T19:34:13;22.20;99.90
12959;DHT22;6544;51.666;6.634;2023-06-04T19:36:40;22.20;99.90
12959;DHT22;6544;51.666;6.634;2023-06-04T19:39:07;22.10;99.90
12959;DHT22;6544;51.666;6.634;2023-06-04T19:41:34;22.00;99.90
12959;DHT22;6544;51.666;6.634;2023-06-04T19:44:01;21.80;99.90
12959;DHT22;6544;51.666;6.634;2023-06-04T19:46:28;21.50;99.90
12959;DHT22;6544;51.666;6.634;2023-06-04T19:48:55;21.40;99.90
12959;DHT22;6544;51.666;6.634;2023-06-04T19:51:25;21.40;99.90
12959;DHT22;6544;51.666;6.634;2023-06-04T19:53:52;21.40;99.90
12959;DHT22;6544;51.666;6.634;2023-06-04T19:56:19;21.40;99.90
12959;DHT22;6544;51.666;6.634;2023-06-04T19:58:46;21.30;99.90
12959;DHT22;6544;51.666;6.634;2023-06-04T20:01:13;21.30;99.90
12959;DHT22;6544;51.666;6.634;2023-06-04T20:03:39;21.30;99.90
12959;DHT22;6544;51.666;6.634;2023-06-04T20:06:07;21.30;99.90
12959;DHT22;6544;51.666;6.634;2023-06-04T20:08:35;21.20;99.90
12959;DHT22;6544;51.666;6.634;2023-06-04T20:11:02;20.90;99.90
12959;DHT22;6544;51.666;6.634;2023-06-04T20:13:31;20.80;99.90
12959;DHT22;6544;51.666;6.634;2023-06-04T20:15:58;20.80;99.90
12959;DHT22;6544;51.666;6.634;2023-06-04T20:18:25;20.60;99.90
12959;DHT22;6544;51.666;6.634;2023-06-04T20:20:54;20.50;99.90
12959;DHT22;6544;51.666;6.634;2023-06-04T20:23:21;20.40;99.90
12959;DHT22;6544;51.666;6.634;2023-06-04T20:25:49;20.20;99.90
12959;DHT22;6544;51.666;6.634;2023-06-04T20:28:16;20.10;99.90
12959;DHT22;6544;51.666;6.634;2023-06-04T20:30:43;19.90;99.90
12959;DHT22;6544;51.666;6.634;2023-06-04T20:33:10;19.90;99.90
12959;DHT22;6544;51.666;6.634;2023-06-04T20:35:37;19.60;99.90
12959;DHT22;6544;51.666;6.634;2023-06-04T20:38:04;19.50;99.90
12959;DHT22;6544;51.666;6.634;2023-06-04T20:40:31;19.40;99.90
12959;DHT22;6544;51.666;6.634;2023-06-04T20:43:00;19.20;99.90
12959;DHT22;6544;51.666;6.634;2023-06-04T20:45:26;19.20;99.90
12959;DHT22;6544;51.666;6.634;2023-06-04T20:47:53;19.20;99.90
12959;DHT22;6544;51.666;6.634;2023-06-04T20:50:21;19.00;1.00
12959;DHT22;6544;51.666;6.634;2023-06-04T20:52:48;18.90;1.00
12959;DHT22;6544;51.666;6.634;2023-06-04T20:55:15;18.60;1.00
12959;DHT22;6544;51.666;6.634;2023-06-04T20:57:42;18.70;1.00
12959;DHT22;6544;51.666;6.634;2023-06-04T21:00:11;18.60;1.00
12959;DHT22;6544;51.666;6.634;2023-06-04T21:02:40;18.60;1.00
12959;DHT22;6544;51.666;6.634;2023-06-04T21:05:07;18.60;1.00
12959;DHT22;6544;51.666;6.634;2023-06-04T21:07:34;18.50;1.00
12959;DHT22;6544;51.666;6.634;2023-06-04T21:10:01;18.40;1.00
12959;DHT22;6544;51.666;6.634;2023-06-04T21:12:28;18.50;1.00
12959;DHT22;6544;51.666;6.634;2023-06-04T21:14:55;18.40;1.00
12959;DHT22;6544;51.666;6.634;2023-06-04T21:17:23;18.30;1.00
12959;DHT22;6544;51.666;6.634;2023-06-04T21:19:50;18.10;1.00
12959;DHT22;6544;51.666;6.634;2023-06-04T21:22:17;18.00;1.00
12959;DHT22;6544;51.666;6.634;2023-06-04T21:24:44;18.00;1.00
12959;DHT22;6544;51.666;6.634;2023-06-04T21:27:11;17.90;1.00
12959;DHT22;6544;51.666;6.634;2023-06-04T21:29:38;18.00;1.00
12959;DHT22;6544;51.666;6.634;2023-06-04T21:32:06;18.00;1.00
12959;DHT22;6544;51.666;6.634;2023-06-04T21:34:34;17.90;1.00
12959;DHT22;6544;51.666;6.634;2023-06-04T21:37:01;17.90;1.00
12959;DHT22;6544;51.666;6.634;2023-06-04T21:39:28;17.90;1.00
12959;DHT22;6544;51.666;6.634;2023-06-04T21:41:55;17.90;1.00
12959;DHT22;6544;51.666;6.634;2023-06-04T21:44:22;17.70;1.00
12959;DHT22;6544;51.666;6.634;2023-06-04T21:46:49;17.80;1.00
12959;DHT22;6544;51.666;6.634;2023-06-04T21:49:16;17.80;1.00
12959;DHT22;6544;51.666;6.634;2023-06-04T21:51:44;17.80;1.00
12959;DHT22;6544;51.666;6.634;2023-06-04T21:54:11;17.90;1.00
12959;DHT22;6544;51.666;6.634;2023-06-04T21:56:38;17.90;1.00
12959;DHT22;6544;51.666;6.634;2023-06-04T21:59:05;17.90;1.00
12959;DHT22;6544;51.666;6.634;2023-06-04T22:01:32;17.90;1.00
12959;DHT22;6544;51.666;6.634;2023-06-04T22:03:59;18.00;1.00
12959;DHT22;6544;51.666;6.634;2023-06-04T22:06:26;18.00;1.00
12959;DHT22;6544;51.666;6.634;2023-06-04T22:08:54;17.90;1.00
12959;DHT22;6544;51.666;6.634;2023-06-04T22:11:21;18.00;1.00
12959;DHT22;6544;51.666;6.634;2023-06-04T22:13:48;17.60;1.00
12959;DHT22;6544;51.666;6.634;2023-06-04T22:16:15;17.60;1.00
12959;DHT22;6544;51.666;6.634;2023-06-04T22:18:42;17.40;1.00
12959;DHT22;6544;51.666;6.634;2023-06-04T22:21:08;17.40;1.00
12959;DHT22;6544;51.666;6.634;2023-06-04T22:23:35;17.40;1.00
12959;DHT22;6544;51.666;6.634;2023-06-04T22:26:04;17.40;1.00
12959;DHT22;6544;51.666;6.634;2023-06-04T22:28:30;17.20;1.00
12959;DHT22;6544;51.666;6.634;2023-06-04T22:30:57;17.10;1.00
12959;DHT22;6544;51.666;6.634;2023-06-04T22:33:24;16.90;1.00
12959;DHT22;6544;51.666;6.634;2023-06-04T22:35:51;17.00;1.00
12959;DHT22;6544;51.666;6.634;2023-06-04T22:38:18;17.00;1.00
12959;DHT22;6544;51.666;6.634;2023-06-04T22:40:45;17.00;1.00
12959;DHT22;6544;51.666;6.634;2023-06-04T22:43:13;17.10;1.00
12959;DHT22;6544;51.666;6.634;2023-06-04T22:45:40;17.10;1.00
12959;DHT22;6544;51.666;6.634;2023-06-04T22:48:08;17.10;1.00
12959;DHT22;6544;51.666;6.634;2023-06-04T22:50:35;17.00;1.00
12959;DHT22;6544;51.666;6.634;2023-06-04T22:53:03;17.10;1.00
12959;DHT22;6544;51.666;6.634;2023-06-04T22:55:34;17.00;1.00
12959;DHT22;6544;51.666;6.634;2023-06-04T22:58:00;16.80;1.00
12959;DHT22;6544;51.666;6.634;2023-06-04T23:00:29;16.90;1.00
12959;DHT22;6544;51.666;6.634;2023-06-04T23:02:56;16.80;1.00
12959;DHT22;6544;51.666;6.634;2023-06-04T23:05:23;16.70;1.00
12959;DHT22;6544;51.666;6.634;2023-06-04T23:07:53;16.40;1.00
12959;DHT22;6544;51.666;6.634;2023-06-04T23:10:20;16.40;1.00
12959;DHT22;6544;51.666;6.634;2023-06-04T23:12:47;16.40;1.00
12959;DHT22;6544;51.666;6.634;2023-06-04T23:15:19;16.40;1.00
12959;DHT22;6544;51.666;6.634;2023-06-04T23:17:48;16.50;1.00
12959;DHT22;6544;51.666;6.634;2023-06-04T23:20:15;16.50;1.00
12959;DHT22;6544;51.666;6.634;2023-06-04T23:22:43;16.20;1.00
12959;DHT22;6544;51.666;6.634;2023-06-04T23:25:10;16.10;1.00
12959;DHT22;6544;51.666;6.634;2023-06-04T23:27:37;16.10;1.00
12959;DHT22;6544;51.666;6.634;2023-06-04T23:30:04;16.00;1.00
12959;DHT22;6544;51.666;6.634;2023-06-04T23:32:31;16.10;1.00
12959;DHT22;6544;51.666;6.634;2023-06-04T23:35:00;16.00;1.00
12959;DHT22;6544;51.666;6.634;2023-06-04T23:37:26;16.10;1.00
12959;DHT22;6544;51.666;6.634;2023-06-04T23:39:53;16.00;1.00
12959;DHT22;6544;51.666;6.634;2023-06-04T23:42:20;15.90;1.00
12959;DHT22;6544;51.666;6.634;2023-06-04T23:44:47;16.00;1.00
12959;DHT22;6544;51.666;6.634;2023-06-04T23:47:14;16.00;1.00
12959;DHT22;6544;51.666;6.634;2023-06-04T23:49:41;16.00;1.00
12959;DHT22;6544;51.666;6.634;2023-06-04T23:52:11;16.00;1.00
12959;DHT22;6544;51.666;6.634;2023-06-04T23:54:38;16.20;1.00
12959;DHT22;6544;51.666;6.634;2023-06-04T23:57:05;16.00;1.00
12959;DHT22;6544;51.666;6.634;2023-06-04T23:59:32;16.00;1.00
